sensor_id;sensor_type;location;lat;lon;timestamp;P1;durP1;ratioP1;P2;durP2;ratioP2
4529;SDS011;2277;51.626;7.516;2023-04-24T00:00:36;1.10;;;0.70;;
4529;SDS011;2277;51.626;7.516;2023-04-24T00:03:05;0.90;;;0.53;;
4529;SDS011;2277;51.626;7.516;2023-04-24T00:05:31;5.53;;;4.13;;
4529;SDS011;2277;51.626;7.516;2023-04-24T00:07:57;2.90;;;1.20;;
4529;SDS011;2277;51.626;7.516;2023-04-24T00:10:23;1.57;;;1.07;;
4529;SDS011;2277;51.626;7.516;2023-04-24T00:12:49;1.00;;;0.70;;
4529;SDS011;2277;51.626;7.516;2023-04-24T00:15:14;1.17;;;0.80;;
4529;SDS011;2277;51.626;7.516;2023-04-24T00:17:40;0.90;;;0.60;;
4529;SDS011;2277;51.626;7.516;2023-04-24T00:20:05;1.90;;;1.30;;
4529;SDS011;2277;51.626;7.516;2023-04-24T00:22:32;0.97;;;0.67;;
4529;SDS011;2277;51.626;7.516;2023-04-24T00:24:57;1.30;;;0.97;;
4529;SDS011;2277;51.626;7.516;2023-04-24T00:27:23;2.60;;;0.83;;
4529;SDS011;2277;51.626;7.516;2023-04-24T00:29:49;1.10;;;0.80;;
4529;SDS011;2277;51.626;7.516;2023-04-24T00:32:14;1.00;;;0.60;;
4529;SDS011;2277;51.626;7.516;2023-04-24T00:34:40;1.20;;;0.70;;
4529;SDS011;2277;51.626;7.516;2023-04-24T00:37:06;1.00;;;0.70;;
4529;SDS011;2277;51.626;7.516;2023-04-24T00:39:32;1.37;;;0.70;;
4529;SDS011;2277;51.626;7.516;2023-04-24T00:41:58;1.10;;;0.70;;
4529;SDS011;2277;51.626;7.516;2023-04-24T00:44:24;1.53;;;1.43;;
4529;SDS011;2277;51.626;7.516;2023-04-24T00:46:50;1.00;;;0.70;;
4529;SDS011;2277;51.626;7.516;2023-04-24T00:49:19;1.30;;;1.10;;
4529;SDS011;2277;51.626;7.516;2023-04-24T00:51:46;1.07;;;0.90;;
4529;SDS011;2277;51.626;7.516;2023-04-24T00:54:15;0.90;;;0.70;;
4529;SDS011;2277;51.626;7.516;2023-04-24T00:56:41;3.37;;;1.33;;
4529;SDS011;2277;51.626;7.516;2023-04-24T00:59:07;1.33;;;0.90;;
4529;SDS011;2277;51.626;7.516;2023-04-24T01:01:33;1.23;;;1.07;;
4529;SDS011;2277;51.626;7.516;2023-04-24T01:03:59;3.13;;;2.83;;
4529;SDS011;2277;51.626;7.516;2023-04-24T01:06:27;2.87;;;2.00;;
4529;SDS011;2277;51.626;7.516;2023-04-24T01:08:53;1.20;;;1.00;;
4529;SDS011;2277;51.626;7.516;2023-04-24T01:11:20;4.13;;;1.60;;
4529;SDS011;2277;51.626;7.516;2023-04-24T01:13:47;1.90;;;0.93;;
4529;SDS011;2277;51.626;7.516;2023-04-24T01:16:13;1.43;;;1.33;;
4529;SDS011;2277;51.626;7.516;2023-04-24T01:18:40;1.53;;;1.43;;
4529;SDS011;2277;51.626;7.516;2023-04-24T01:21:07;1.57;;;1.00;;
4529;SDS011;2277;51.626;7.516;2023-04-24T01:23:34;1.43;;;0.90;;
4529;SDS011;2277;51.626;7.516;2023-04-24T01:26:00;1.00;;;0.70;;
4529;SDS011;2277;51.626;7.516;2023-04-24T01:28:26;1.93;;;1.73;;
4529;SDS011;2277;51.626;7.516;2023-04-24T01:30:52;1.50;;;1.17;;
4529;SDS011;2277;51.626;7.516;2023-04-24T01:33:18;1.30;;;1.20;;
4529;SDS011;2277;51.626;7.516;2023-04-24T01:35:46;1.50;;;1.20;;
4529;SDS011;2277;51.626;7.516;2023-04-24T01:38:12;1.57;;;1.00;;
4529;SDS011;2277;51.626;7.516;2023-04-24T01:40:37;1.60;;;1.10;;
4529;SDS011;2277;51.626;7.516;2023-04-24T01:43:03;1.80;;;1.60;;
4529;SDS011;2277;51.626;7.516;2023-04-24T01:45:29;1.73;;;1.57;;
4529;SDS011;2277;51.626;7.516;2023-04-24T01:47:55;2.40;;;2.10;;
4529;SDS011;2277;51.626;7.516;2023-04-24T01:50:21;2.43;;;1.50;;
4529;SDS011;2277;51.626;7.516;2023-04-24T01:52:46;1.20;;;0.87;;
4529;SDS011;2277;51.626;7.516;2023-04-24T01:55:12;4.97;;;1.83;;
4529;SDS011;2277;51.626;7.516;2023-04-24T01:57:38;2.70;;;0.97;;
4529;SDS011;2277;51.626;7.516;2023-04-24T02:00:04;2.20;;;2.00;;
4529;SDS011;2277;51.626;7.516;2023-04-24T02:02:31;1.30;;;1.20;;
4529;SDS011;2277;51.626;7.516;2023-04-24T02:04:57;8.00;;;2.23;;
4529;SDS011;2277;51.626;7.516;2023-04-24T02:07:23;2.17;;;1.40;;
4529;SDS011;2277;51.626;7.516;2023-04-24T02:09:49;1.83;;;1.00;;
4529;SDS011;2277;51.626;7.516;2023-04-24T02:12:14;2.20;;;1.33;;
4529;SDS011;2277;51.626;7.516;2023-04-24T02:14:42;2.00;;;1.33;;
4529;SDS011;2277;51.626;7.516;2023-04-24T02:17:08;4.13;;;1.93;;
4529;SDS011;2277;51.626;7.516;2023-04-24T02:19:34;1.73;;;1.23;;
4529;SDS011;2277;51.626;7.516;2023-04-24T02:21:59;1.17;;;1.07;;
4529;SDS011;2277;51.626;7.516;2023-04-24T02:24:25;1.37;;;1.27;;
4529;SDS011;2277;51.626;7.516;2023-04-24T02:26:50;6.47;;;3.77;;
4529;SDS011;2277;51.626;7.516;2023-04-24T02:29:16;1.73;;;1.63;;
4529;SDS011;2277;51.626;7.516;2023-04-24T02:31:42;3.60;;;1.80;;
4529;SDS011;2277;51.626;7.516;2023-04-24T02:34:07;2.50;;;2.17;;
4529;SDS011;2277;51.626;7.516;2023-04-24T02:36:33;4.47;;;3.20;;
4529;SDS011;2277;51.626;7.516;2023-04-24T02:38:59;4.47;;;3.00;;
4529;SDS011;2277;51.626;7.516;2023-04-24T02:41:25;4.60;;;2.83;;
4529;SDS011;2277;51.626;7.516;2023-04-24T02:43:56;2.30;;;1.43;;
4529;SDS011;2277;51.626;7.516;2023-04-24T02:46:22;2.30;;;1.63;;
4529;SDS011;2277;51.626;7.516;2023-04-24T02:48:48;1.90;;;1.60;;
4529;SDS011;2277;51.626;7.516;2023-04-24T02:51:14;2.43;;;1.40;;
4529;SDS011;2277;51.626;7.516;2023-04-24T02:53:39;1.50;;;1.40;;
4529;SDS011;2277;51.626;7.516;2023-04-24T02:56:05;1.63;;;1.53;;
4529;SDS011;2277;51.626;7.516;2023-04-24T02:58:31;6.30;;;4.10;;
4529;SDS011;2277;51.626;7.516;2023-04-24T03:00:56;3.70;;;2.90;;
4529;SDS011;2277;51.626;7.516;2023-04-24T03:03:23;3.00;;;2.00;;
4529;SDS011;2277;51.626;7.516;2023-04-24T03:05:49;5.63;;;3.10;;
4529;SDS011;2277;51.626;7.516;2023-04-24T03:08:15;3.63;;;2.40;;
4529;SDS011;2277;51.626;7.516;2023-04-24T03:10:40;3.50;;;2.33;;
4529;SDS011;2277;51.626;7.516;2023-04-24T03:13:06;4.13;;;3.63;;
4529;SDS011;2277;51.626;7.516;2023-04-24T03:15:32;4.63;;;4.20;;
4529;SDS011;2277;51.626;7.516;2023-04-24T03:17:57;2.40;;;2.20;;
4529;SDS011;2277;51.626;7.516;2023-04-24T03:20:23;3.30;;;2.90;;
4529;SDS011;2277;51.626;7.516;2023-04-24T03:22:49;5.07;;;4.67;;
4529;SDS011;2277;51.626;7.516;2023-04-24T03:25:15;3.30;;;2.90;;
4529;SDS011;2277;51.626;7.516;2023-04-24T03:27:40;6.90;;;3.37;;
4529;SDS011;2277;51.626;7.516;2023-04-24T03:30:06;5.57;;;4.57;;
4529;SDS011;2277;51.626;7.516;2023-04-24T03:32:32;3.97;;;3.03;;
4529;SDS011;2277;51.626;7.516;2023-04-24T03:34:58;5.97;;;4.07;;
4529;SDS011;2277;51.626;7.516;2023-04-24T03:37:24;9.03;;;4.77;;
4529;SDS011;2277;51.626;7.516;2023-04-24T03:39:50;5.90;;;5.13;;
4529;SDS011;2277;51.626;7.516;2023-04-24T03:42:16;6.33;;;4.60;;
4529;SDS011;2277;51.626;7.516;2023-04-24T03:44:41;3.60;;;3.30;;
4529;SDS011;2277;51.626;7.516;2023-04-24T03:47:07;6.87;;;4.53;;
4529;SDS011;2277;51.626;7.516;2023-04-24T03:49:32;5.00;;;4.37;;
4529;SDS011;2277;51.626;7.516;2023-04-24T03:51:58;4.80;;;4.33;;
4529;SDS011;2277;51.626;7.516;2023-04-24T03:54:24;5.53;;;4.90;;
4529;SDS011;2277;51.626;7.516;2023-04-24T03:56:49;4.00;;;3.70;;
4529;SDS011;2277;51.626;7.516;2023-04-24T03:59:15;4.50;;;3.70;;
4529;SDS011;2277;51.626;7.516;2023-04-24T04:01:40;4.93;;;4.47;;
4529;SDS011;2277;51.626;7.516;2023-04-24T04:04:06;8.37;;;5.17;;
4529;SDS011;2277;51.626;7.516;2023-04-24T04:06:33;4.80;;;4.40;;
4529;SDS011;2277;51.626;7.516;2023-04-24T04:08:58;4.40;;;4.00;;
4529;SDS011;2277;51.626;7.516;2023-04-24T04:11:24;4.20;;;3.70;;
4529;SDS011;2277;51.626;7.516;2023-04-24T04:13:50;10.70;;;5.60;;
4529;SDS011;2277;51.626;7.516;2023-04-24T04:16:16;5.27;;;3.67;;
4529;SDS011;2277;51.626;7.516;2023-04-24T04:18:42;6.50;;;3.70;;
4529;SDS011;2277;51.626;7.516;2023-04-24T04:21:08;11.00;;;4.30;;
4529;SDS011;2277;51.626;7.516;2023-04-24T04:23:34;7.50;;;5.23;;
4529;SDS011;2277;51.626;7.516;2023-04-24T04:26:00;16.93;;;5.30;;
4529;SDS011;2277;51.626;7.516;2023-04-24T04:28:26;10.57;;;6.60;;
4529;SDS011;2277;51.626;7.516;2023-04-24T04:30:51;5.27;;;4.27;;
4529;SDS011;2277;51.626;7.516;2023-04-24T04:33:20;10.20;;;4.80;;
4529;SDS011;2277;51.626;7.516;2023-04-24T04:35:46;5.17;;;4.07;;
4529;SDS011;2277;51.626;7.516;2023-04-24T04:38:17;4.30;;;3.93;;
4529;SDS011;2277;51.626;7.516;2023-04-24T04:40:43;8.30;;;5.20;;
4529;SDS011;2277;51.626;7.516;2023-04-24T04:43:09;6.20;;;5.70;;
4529;SDS011;2277;51.626;7.516;2023-04-24T04:45:36;6.90;;;4.20;;
4529;SDS011;2277;51.626;7.516;2023-04-24T04:48:03;6.67;;;5.40;;
4529;SDS011;2277;51.626;7.516;2023-04-24T04:50:32;5.80;;;4.50;;
4529;SDS011;2277;51.626;7.516;2023-04-24T04:52:58;7.07;;;5.73;;
4529;SDS011;2277;51.626;7.516;2023-04-24T04:55:23;5.17;;;4.77;;
4529;SDS011;2277;51.626;7.516;2023-04-24T04:57:49;5.47;;;3.80;;
4529;SDS011;2277;51.626;7.516;2023-04-24T05:00:15;6.50;;;3.57;;
4529;SDS011;2277;51.626;7.516;2023-04-24T05:02:41;6.33;;;5.70;;
4529;SDS011;2277;51.626;7.516;2023-04-24T05:05:06;6.93;;;6.23;;
4529;SDS011;2277;51.626;7.516;2023-04-24T05:07:33;13.43;;;6.37;;
4529;SDS011;2277;51.626;7.516;2023-04-24T05:09:59;6.40;;;5.33;;
4529;SDS011;2277;51.626;7.516;2023-04-24T05:12:25;8.33;;;6.27;;
4529;SDS011;2277;51.626;7.516;2023-04-24T05:14:50;7.10;;;6.40;;
4529;SDS011;2277;51.626;7.516;2023-04-24T05:17:16;6.03;;;5.37;;
4529;SDS011;2277;51.626;7.516;2023-04-24T05:19:42;23.27;;;8.93;;
4529;SDS011;2277;51.626;7.516;2023-04-24T05:22:07;6.83;;;5.50;;
4529;SDS011;2277;51.626;7.516;2023-04-24T05:24:34;6.50;;;4.07;;
4529;SDS011;2277;51.626;7.516;2023-04-24T05:27:02;6.03;;;5.23;;
4529;SDS011;2277;51.626;7.516;2023-04-24T05:29:29;10.00;;;5.03;;
4529;SDS011;2277;51.626;7.516;2023-04-24T05:31:56;5.80;;;4.83;;
4529;SDS011;2277;51.626;7.516;2023-04-24T05:34:22;4.87;;;4.43;;
4529;SDS011;2277;51.626;7.516;2023-04-24T05:36:48;4.70;;;4.30;;
4529;SDS011;2277;51.626;7.516;2023-04-24T05:39:13;9.23;;;6.00;;
4529;SDS011;2277;51.626;7.516;2023-04-24T05:41:40;6.10;;;4.13;;
4529;SDS011;2277;51.626;7.516;2023-04-24T05:44:05;5.50;;;5.00;;
4529;SDS011;2277;51.626;7.516;2023-04-24T05:46:31;6.23;;;4.67;;
4529;SDS011;2277;51.626;7.516;2023-04-24T05:48:57;5.53;;;4.70;;
4529;SDS011;2277;51.626;7.516;2023-04-24T05:51:23;5.90;;;4.47;;
4529;SDS011;2277;51.626;7.516;2023-04-24T05:53:48;7.80;;;3.83;;
4529;SDS011;2277;51.626;7.516;2023-04-24T05:56:14;13.50;;;4.70;;
4529;SDS011;2277;51.626;7.516;2023-04-24T05:58:40;5.03;;;3.60;;
4529;SDS011;2277;51.626;7.516;2023-04-24T06:01:06;5.53;;;4.83;;
4529;SDS011;2277;51.626;7.516;2023-04-24T06:03:32;7.03;;;6.33;;
4529;SDS011;2277;51.626;7.516;2023-04-24T06:05:57;4.63;;;3.57;;
4529;SDS011;2277;51.626;7.516;2023-04-24T06:08:23;5.33;;;3.60;;
4529;SDS011;2277;51.626;7.516;2023-04-24T06:10:49;10.10;;;5.17;;
4529;SDS011;2277;51.626;7.516;2023-04-24T06:13:15;7.50;;;4.67;;
4529;SDS011;2277;51.626;7.516;2023-04-24T06:15:41;4.10;;;3.70;;
4529;SDS011;2277;51.626;7.516;2023-04-24T06:18:07;4.60;;;4.23;;
4529;SDS011;2277;51.626;7.516;2023-04-24T06:20:32;11.77;;;4.83;;
4529;SDS011;2277;51.626;7.516;2023-04-24T06:22:58;4.20;;;3.23;;
4529;SDS011;2277;51.626;7.516;2023-04-24T06:25:26;4.33;;;3.00;;
4529;SDS011;2277;51.626;7.516;2023-04-24T06:27:52;3.67;;;3.23;;
4529;SDS011;2277;51.626;7.516;2023-04-24T06:30:18;5.53;;;4.23;;
4529;SDS011;2277;51.626;7.516;2023-04-24T06:32:44;28.47;;;5.13;;
4529;SDS011;2277;51.626;7.516;2023-04-24T06:35:10;7.83;;;3.57;;
4529;SDS011;2277;51.626;7.516;2023-04-24T06:37:37;11.37;;;6.93;;
4529;SDS011;2277;51.626;7.516;2023-04-24T06:40:06;3.63;;;3.23;;
4529;SDS011;2277;51.626;7.516;2023-04-24T06:42:33;4.63;;;3.90;;
4529;SDS011;2277;51.626;7.516;2023-04-24T06:44:59;6.90;;;4.50;;
4529;SDS011;2277;51.626;7.516;2023-04-24T06:47:25;12.30;;;7.23;;
4529;SDS011;2277;51.626;7.516;2023-04-24T06:49:51;3.37;;;2.83;;
4529;SDS011;2277;51.626;7.516;2023-04-24T06:52:17;6.40;;;4.07;;
4529;SDS011;2277;51.626;7.516;2023-04-24T06:54:43;4.00;;;3.53;;
4529;SDS011;2277;51.626;7.516;2023-04-24T06:57:09;4.00;;;3.50;;
4529;SDS011;2277;51.626;7.516;2023-04-24T06:59:35;5.00;;;4.43;;
4529;SDS011;2277;51.626;7.516;2023-04-24T07:02:01;4.40;;;3.40;;
4529;SDS011;2277;51.626;7.516;2023-04-24T07:04:27;7.40;;;4.13;;
4529;SDS011;2277;51.626;7.516;2023-04-24T07:06:53;3.03;;;2.67;;
4529;SDS011;2277;51.626;7.516;2023-04-24T07:09:20;4.20;;;3.47;;
4529;SDS011;2277;51.626;7.516;2023-04-24T07:11:47;2.90;;;2.67;;
4529;SDS011;2277;51.626;7.516;2023-04-24T07:14:13;4.63;;;4.23;;
4529;SDS011;2277;51.626;7.516;2023-04-24T07:16:39;2.80;;;2.40;;
4529;SDS011;2277;51.626;7.516;2023-04-24T07:19:04;4.77;;;3.47;;
4529;SDS011;2277;51.626;7.516;2023-04-24T07:21:30;2.00;;;1.90;;
4529;SDS011;2277;51.626;7.516;2023-04-24T07:23:56;3.60;;;3.23;;
4529;SDS011;2277;51.626;7.516;2023-04-24T07:26:23;4.17;;;2.67;;
4529;SDS011;2277;51.626;7.516;2023-04-24T07:28:48;1.73;;;1.43;;
4529;SDS011;2277;51.626;7.516;2023-04-24T07:31:14;3.40;;;2.50;;
4529;SDS011;2277;51.626;7.516;2023-04-24T07:33:40;3.63;;;3.33;;
4529;SDS011;2277;51.626;7.516;2023-04-24T07:36:06;5.20;;;3.23;;
4529;SDS011;2277;51.626;7.516;2023-04-24T07:38:31;3.17;;;2.53;;
4529;SDS011;2277;51.626;7.516;2023-04-24T07:40:57;3.60;;;2.90;;
4529;SDS011;2277;51.626;7.516;2023-04-24T07:43:23;3.97;;;2.37;;
4529;SDS011;2277;51.626;7.516;2023-04-24T07:45:51;2.83;;;2.43;;
4529;SDS011;2277;51.626;7.516;2023-04-24T07:48:17;2.83;;;2.60;;
4529;SDS011;2277;51.626;7.516;2023-04-24T07:50:43;2.77;;;2.20;;
4529;SDS011;2277;51.626;7.516;2023-04-24T07:53:09;2.50;;;1.90;;
4529;SDS011;2277;51.626;7.516;2023-04-24T07:55:35;3.77;;;2.53;;
4529;SDS011;2277;51.626;7.516;2023-04-24T07:58:01;1.90;;;1.70;;
4529;SDS011;2277;51.626;7.516;2023-04-24T08:00:27;3.57;;;2.97;;
4529;SDS011;2277;51.626;7.516;2023-04-24T08:02:52;6.10;;;2.77;;
4529;SDS011;2277;51.626;7.516;2023-04-24T08:05:18;1.87;;;1.40;;
4529;SDS011;2277;51.626;7.516;2023-04-24T08:07:45;2.00;;;1.50;;
4529;SDS011;2277;51.626;7.516;2023-04-24T08:10:13;1.73;;;1.63;;
4529;SDS011;2277;51.626;7.516;2023-04-24T08:12:41;2.30;;;1.37;;
4529;SDS011;2277;51.626;7.516;2023-04-24T08:15:06;1.43;;;1.00;;
4529;SDS011;2277;51.626;7.516;2023-04-24T08:17:33;1.77;;;1.63;;
4529;SDS011;2277;51.626;7.516;2023-04-24T08:20:00;7.10;;;3.23;;
4529;SDS011;2277;51.626;7.516;2023-04-24T08:22:29;4.80;;;1.70;;
4529;SDS011;2277;51.626;7.516;2023-04-24T08:24:55;2.90;;;2.67;;
4529;SDS011;2277;51.626;7.516;2023-04-24T08:27:21;2.07;;;1.63;;
4529;SDS011;2277;51.626;7.516;2023-04-24T08:29:52;4.50;;;2.20;;
4529;SDS011;2277;51.626;7.516;2023-04-24T08:32:18;6.00;;;1.70;;
4529;SDS011;2277;51.626;7.516;2023-04-24T08:34:44;3.60;;;1.60;;
4529;SDS011;2277;51.626;7.516;2023-04-24T08:37:10;1.50;;;1.30;;
4529;SDS011;2277;51.626;7.516;2023-04-24T08:39:36;5.77;;;2.43;;
4529;SDS011;2277;51.626;7.516;2023-04-24T08:42:02;3.40;;;1.57;;
4529;SDS011;2277;51.626;7.516;2023-04-24T08:44:32;1.73;;;1.63;;
4529;SDS011;2277;51.626;7.516;2023-04-24T08:46:59;1.47;;;1.17;;
4529;SDS011;2277;51.626;7.516;2023-04-24T08:49:26;1.10;;;0.73;;
4529;SDS011;2277;51.626;7.516;2023-04-24T08:51:53;1.63;;;1.30;;
4529;SDS011;2277;51.626;7.516;2023-04-24T08:54:19;2.50;;;2.30;;
4529;SDS011;2277;51.626;7.516;2023-04-24T08:56:47;2.50;;;2.30;;
4529;SDS011;2277;51.626;7.516;2023-04-24T08:59:14;1.97;;;1.87;;
4529;SDS011;2277;51.626;7.516;2023-04-24T09:01:40;1.00;;;0.90;;
4529;SDS011;2277;51.626;7.516;2023-04-24T09:04:06;1.33;;;1.23;;
4529;SDS011;2277;51.626;7.516;2023-04-24T09:06:38;1.00;;;0.90;;
4529;SDS011;2277;51.626;7.516;2023-04-24T09:09:04;2.30;;;1.73;;
4529;SDS011;2277;51.626;7.516;2023-04-24T09:11:30;1.73;;;1.40;;
4529;SDS011;2277;51.626;7.516;2023-04-24T09:13:59;1.30;;;0.87;;
4529;SDS011;2277;51.626;7.516;2023-04-24T09:16:26;1.60;;;1.30;;
4529;SDS011;2277;51.626;7.516;2023-04-24T09:18:52;1.57;;;1.47;;
4529;SDS011;2277;51.626;7.516;2023-04-24T09:21:20;1.70;;;1.10;;
4529;SDS011;2277;51.626;7.516;2023-04-24T09:23:47;1.00;;;0.80;;
4529;SDS011;2277;51.626;7.516;2023-04-24T09:26:24;1.83;;;1.73;;
4529;SDS011;2277;51.626;7.516;2023-04-24T09:28:50;1.23;;;1.10;;
4529;SDS011;2277;51.626;7.516;2023-04-24T09:31:17;2.10;;;2.00;;
4529;SDS011;2277;51.626;7.516;2023-04-24T09:36:34;1.40;;;1.30;;
4529;SDS011;2277;51.626;7.516;2023-04-24T09:39:04;3.50;;;1.70;;
4529;SDS011;2277;51.626;7.516;2023-04-24T09:41:33;5.23;;;1.83;;
4529;SDS011;2277;51.626;7.516;2023-04-24T09:44:11;2.17;;;1.63;;
4529;SDS011;2277;51.626;7.516;2023-04-24T09:46:41;1.20;;;1.10;;
4529;SDS011;2277;51.626;7.516;2023-04-24T09:49:14;2.50;;;1.30;;
4529;SDS011;2277;51.626;7.516;2023-04-24T09:51:41;3.20;;;2.20;;
4529;SDS011;2277;51.626;7.516;2023-04-24T09:54:17;2.57;;;1.60;;
4529;SDS011;2277;51.626;7.516;2023-04-24T09:56:48;3.73;;;2.70;;
4529;SDS011;2277;51.626;7.516;2023-04-24T09:59:15;3.77;;;3.47;;
4529;SDS011;2277;51.626;7.516;2023-04-24T10:01:42;2.40;;;2.20;;
4529;SDS011;2277;51.626;7.516;2023-04-24T10:04:19;2.67;;;2.43;;
4529;SDS011;2277;51.626;7.516;2023-04-24T10:06:48;2.40;;;2.20;;
4529;SDS011;2277;51.626;7.516;2023-04-24T10:09:15;1.90;;;1.70;;
4529;SDS011;2277;51.626;7.516;2023-04-24T10:11:43;1.97;;;1.87;;
4529;SDS011;2277;51.626;7.516;2023-04-24T10:14:14;2.30;;;2.20;;
4529;SDS011;2277;51.626;7.516;2023-04-24T10:16:41;2.87;;;2.67;;
4529;SDS011;2277;51.626;7.516;2023-04-24T10:19:07;9.93;;;3.40;;
4529;SDS011;2277;51.626;7.516;2023-04-24T10:21:33;2.23;;;1.50;;
4529;SDS011;2277;51.626;7.516;2023-04-24T10:24:00;5.83;;;1.60;;
4529;SDS011;2277;51.626;7.516;2023-04-24T10:26:28;2.50;;;2.30;;
4529;SDS011;2277;51.626;7.516;2023-04-24T10:28:54;2.90;;;1.90;;
4529;SDS011;2277;51.626;7.516;2023-04-24T10:31:22;2.40;;;1.77;;
4529;SDS011;2277;51.626;7.516;2023-04-24T10:33:47;3.10;;;2.80;;
4529;SDS011;2277;51.626;7.516;2023-04-24T10:36:16;2.70;;;1.97;;
4529;SDS011;2277;51.626;7.516;2023-04-24T10:38:42;1.90;;;1.80;;
4529;SDS011;2277;51.626;7.516;2023-04-24T10:41:11;3.90;;;2.20;;
4529;SDS011;2277;51.626;7.516;2023-04-24T10:43:44;1.50;;;1.40;;
4529;SDS011;2277;51.626;7.516;2023-04-24T10:46:11;3.50;;;1.90;;
4529;SDS011;2277;51.626;7.516;2023-04-24T10:48:44;3.47;;;1.90;;
4529;SDS011;2277;51.626;7.516;2023-04-24T10:51:21;3.50;;;3.20;;
4529;SDS011;2277;51.626;7.516;2023-04-24T10:53:49;2.67;;;1.90;;
4529;SDS011;2277;51.626;7.516;2023-04-24T10:56:16;3.00;;;1.67;;
4529;SDS011;2277;51.626;7.516;2023-04-24T10:58:43;3.03;;;2.50;;
4529;SDS011;2277;51.626;7.516;2023-04-24T11:03:55;4.00;;;2.73;;
4529;SDS011;2277;51.626;7.516;2023-04-24T11:06:29;2.43;;;2.23;;
4529;SDS011;2277;51.626;7.516;2023-04-24T11:09:03;3.60;;;1.90;;
4529;SDS011;2277;51.626;7.516;2023-04-24T11:11:34;3.33;;;2.70;;
4529;SDS011;2277;51.626;7.516;2023-04-24T11:14:02;3.10;;;2.43;;
4529;SDS011;2277;51.626;7.516;2023-04-24T11:19:08;2.53;;;2.27;;
4529;SDS011;2277;51.626;7.516;2023-04-24T11:22:02;2.10;;;1.90;;
4529;SDS011;2277;51.626;7.516;2023-04-24T11:24:39;4.23;;;2.83;;
4529;SDS011;2277;51.626;7.516;2023-04-24T11:27:18;3.93;;;3.03;;
4529;SDS011;2277;51.626;7.516;2023-04-24T11:34:59;4.17;;;3.27;;
4529;SDS011;2277;51.626;7.516;2023-04-24T11:37:27;7.07;;;4.40;;
4529;SDS011;2277;51.626;7.516;2023-04-24T11:39:55;9.87;;;4.27;;
4529;SDS011;2277;51.626;7.516;2023-04-24T11:42:23;3.50;;;2.50;;
4529;SDS011;2277;51.626;7.516;2023-04-24T11:44:51;3.37;;;3.07;;
4529;SDS011;2277;51.626;7.516;2023-04-24T11:47:18;4.37;;;3.00;;
4529;SDS011;2277;51.626;7.516;2023-04-24T11:49:43;5.00;;;3.53;;
4529;SDS011;2277;51.626;7.516;2023-04-24T11:52:09;4.60;;;2.90;;
4529;SDS011;2277;51.626;7.516;2023-04-24T11:54:35;6.47;;;4.17;;
4529;SDS011;2277;51.626;7.516;2023-04-24T11:57:03;3.70;;;3.33;;
4529;SDS011;2277;51.626;7.516;2023-04-24T11:59:35;2.53;;;2.27;;
4529;SDS011;2277;51.626;7.516;2023-04-24T12:02:01;3.83;;;3.40;;
4529;SDS011;2277;51.626;7.516;2023-04-24T12:04:37;7.40;;;2.70;;
4529;SDS011;2277;51.626;7.516;2023-04-24T12:07:04;3.37;;;2.97;;
4529;SDS011;2277;51.626;7.516;2023-04-24T12:09:43;4.13;;;3.50;;
4529;SDS011;2277;51.626;7.516;2023-04-24T12:12:09;7.37;;;3.70;;
4529;SDS011;2277;51.626;7.516;2023-04-24T12:17:14;4.93;;;3.70;;
4529;SDS011;2277;51.626;7.516;2023-04-24T12:19:47;3.40;;;3.07;;
4529;SDS011;2277;51.626;7.516;2023-04-24T12:22:13;10.03;;;4.67;;
4529;SDS011;2277;51.626;7.516;2023-04-24T12:25:01;6.63;;;3.20;;
4529;SDS011;2277;51.626;7.516;2023-04-24T12:27:30;5.57;;;5.10;;
4529;SDS011;2277;51.626;7.516;2023-04-24T12:29:58;5.60;;;5.07;;
4529;SDS011;2277;51.626;7.516;2023-04-24T12:32:25;12.70;;;5.87;;
4529;SDS011;2277;51.626;7.516;2023-04-24T12:34:51;5.60;;;5.10;;
4529;SDS011;2277;51.626;7.516;2023-04-24T12:37:17;7.77;;;3.67;;
4529;SDS011;2277;51.626;7.516;2023-04-24T12:42:30;7.80;;;4.93;;
4529;SDS011;2277;51.626;7.516;2023-04-24T12:44:57;4.90;;;3.33;;
4529;SDS011;2277;51.626;7.516;2023-04-24T12:47:29;4.80;;;4.27;;
4529;SDS011;2277;51.626;7.516;2023-04-24T12:49:55;27.83;;;2.93;;
4529;SDS011;2277;51.626;7.516;2023-04-24T12:52:24;4.97;;;4.57;;
4529;SDS011;2277;51.626;7.516;2023-04-24T12:54:55;6.40;;;4.20;;
4529;SDS011;2277;51.626;7.516;2023-04-24T12:57:26;4.27;;;3.80;;
4529;SDS011;2277;51.626;7.516;2023-04-24T12:59:56;11.87;;;4.37;;
4529;SDS011;2277;51.626;7.516;2023-04-24T13:02:23;3.50;;;3.20;;
4529;SDS011;2277;51.626;7.516;2023-04-24T13:04:50;9.13;;;3.80;;
4529;SDS011;2277;51.626;7.516;2023-04-24T13:07:16;3.93;;;3.40;;
4529;SDS011;2277;51.626;7.516;2023-04-24T13:09:42;2.13;;;1.93;;
4529;SDS011;2277;51.626;7.516;2023-04-24T13:12:09;3.97;;;2.63;;
4529;SDS011;2277;51.626;7.516;2023-04-24T13:14:35;3.70;;;3.20;;
4529;SDS011;2277;51.626;7.516;2023-04-24T13:17:01;3.80;;;2.30;;
4529;SDS011;2277;51.626;7.516;2023-04-24T13:19:28;2.50;;;2.30;;
4529;SDS011;2277;51.626;7.516;2023-04-24T13:21:55;2.20;;;2.00;;
4529;SDS011;2277;51.626;7.516;2023-04-24T13:24:25;3.30;;;2.73;;
4529;SDS011;2277;51.626;7.516;2023-04-24T13:26:51;3.77;;;3.43;;
4529;SDS011;2277;51.626;7.516;2023-04-24T13:29:17;3.47;;;2.20;;
4529;SDS011;2277;51.626;7.516;2023-04-24T13:31:43;8.87;;;3.73;;
4529;SDS011;2277;51.626;7.516;2023-04-24T13:34:09;2.17;;;2.03;;
4529;SDS011;2277;51.626;7.516;2023-04-24T13:36:35;2.23;;;2.03;;
4529;SDS011;2277;51.626;7.516;2023-04-24T13:39:01;3.40;;;3.10;;
4529;SDS011;2277;51.626;7.516;2023-04-24T13:41:29;6.00;;;3.13;;
4529;SDS011;2277;51.626;7.516;2023-04-24T13:43:55;2.33;;;2.13;;
4529;SDS011;2277;51.626;7.516;2023-04-24T13:46:20;2.63;;;2.10;;
4529;SDS011;2277;51.626;7.516;2023-04-24T13:48:46;2.80;;;2.47;;
4529;SDS011;2277;51.626;7.516;2023-04-24T13:51:12;2.77;;;2.27;;
4529;SDS011;2277;51.626;7.516;2023-04-24T13:53:38;2.40;;;2.20;;
4529;SDS011;2277;51.626;7.516;2023-04-24T13:56:04;3.93;;;2.40;;
4529;SDS011;2277;51.626;7.516;2023-04-24T13:58:31;3.77;;;2.03;;
4529;SDS011;2277;51.626;7.516;2023-04-24T14:00:57;1.83;;;1.73;;
4529;SDS011;2277;51.626;7.516;2023-04-24T14:03:22;2.97;;;2.67;;
4529;SDS011;2277;51.626;7.516;2023-04-24T14:05:48;1.70;;;1.60;;
4529;SDS011;2277;51.626;7.516;2023-04-24T14:08:14;8.40;;;3.10;;
4529;SDS011;2277;51.626;7.516;2023-04-24T14:10:39;4.20;;;3.43;;
4529;SDS011;2277;51.626;7.516;2023-04-24T14:13:05;4.03;;;3.53;;
4529;SDS011;2277;51.626;7.516;2023-04-24T14:15:31;3.20;;;2.00;;
4529;SDS011;2277;51.626;7.516;2023-04-24T14:17:57;2.07;;;1.97;;
4529;SDS011;2277;51.626;7.516;2023-04-24T14:20:22;3.90;;;2.00;;
4529;SDS011;2277;51.626;7.516;2023-04-24T14:22:48;3.43;;;2.17;;
4529;SDS011;2277;51.626;7.516;2023-04-24T14:25:14;2.43;;;2.00;;
4529;SDS011;2277;51.626;7.516;2023-04-24T14:27:40;3.30;;;2.23;;
4529;SDS011;2277;51.626;7.516;2023-04-24T14:30:06;3.10;;;2.40;;
4529;SDS011;2277;51.626;7.516;2023-04-24T14:32:32;3.07;;;1.40;;
4529;SDS011;2277;51.626;7.516;2023-04-24T14:34:58;3.20;;;3.00;;
4529;SDS011;2277;51.626;7.516;2023-04-24T14:37:23;2.53;;;2.33;;
4529;SDS011;2277;51.626;7.516;2023-04-24T14:39:49;3.10;;;2.43;;
4529;SDS011;2277;51.626;7.516;2023-04-24T14:42:15;4.70;;;2.40;;
4529;SDS011;2277;51.626;7.516;2023-04-24T14:44:42;3.83;;;2.70;;
4529;SDS011;2277;51.626;7.516;2023-04-24T14:47:07;3.60;;;2.90;;
4529;SDS011;2277;51.626;7.516;2023-04-24T14:49:33;4.40;;;2.57;;
4529;SDS011;2277;51.626;7.516;2023-04-24T14:51:59;2.57;;;2.27;;
4529;SDS011;2277;51.626;7.516;2023-04-24T14:54:24;2.73;;;2.40;;
4529;SDS011;2277;51.626;7.516;2023-04-24T14:56:50;4.03;;;1.30;;
4529;SDS011;2277;51.626;7.516;2023-04-24T14:59:16;3.83;;;2.60;;
4529;SDS011;2277;51.626;7.516;2023-04-24T15:01:41;2.80;;;2.47;;
4529;SDS011;2277;51.626;7.516;2023-04-24T15:04:07;2.27;;;2.10;;
4529;SDS011;2277;51.626;7.516;2023-04-24T15:06:32;4.53;;;2.87;;
4529;SDS011;2277;51.626;7.516;2023-04-24T15:08:58;2.63;;;2.43;;
4529;SDS011;2277;51.626;7.516;2023-04-24T15:11:24;1.33;;;1.23;;
4529;SDS011;2277;51.626;7.516;2023-04-24T15:13:50;3.60;;;1.70;;
4529;SDS011;2277;51.626;7.516;2023-04-24T15:16:15;2.70;;;2.50;;
4529;SDS011;2277;51.626;7.516;2023-04-24T15:18:41;1.83;;;1.73;;
4529;SDS011;2277;51.626;7.516;2023-04-24T15:21:07;3.80;;;2.47;;
4529;SDS011;2277;51.626;7.516;2023-04-24T15:23:32;4.90;;;2.70;;
4529;SDS011;2277;51.626;7.516;2023-04-24T15:25:58;1.93;;;1.60;;
4529;SDS011;2277;51.626;7.516;2023-04-24T15:28:24;7.07;;;4.70;;
4529;SDS011;2277;51.626;7.516;2023-04-24T15:30:50;5.63;;;2.37;;